createdAt,value
2023-04-04T00:00:21.073Z,50.908154
2023-04-04T00:01:21.093Z,50.908169
2023-04-04T00:02:21.113Z,50.908108
2023-04-04T00:03:21.168Z,50.908203
2023-04-04T00:04:21.095Z,50.908169
2023-04-04T00:05:21.051Z,50.908150
2023-04-04T00:06:21.066Z,50.908154
2023-04-04T00:07:21.022Z,50.908123
2023-04-04T00:08:21.089Z,50.908138
2023-04-04T00:09:21.006Z,50.908089
2023-04-04T00:10:21.000Z,50.908134
2023-04-04T00:11:21.015Z,50.908146
2023-04-04T00:12:21.311Z,50.908142
2023-04-04T00:13:20.975Z,50.908100
2023-04-04T00:14:20.966Z,50.908127
2023-04-04T00:15:20.958Z,50.908169
2023-04-04T00:16:21.026Z,50.908150
2023-04-04T00:17:20.940Z,50.908100
2023-04-04T00:18:20.932Z,50.908279
2023-04-04T00:19:20.922Z,50.908211
2023-04-04T00:20:20.922Z,50.908188
2023-04-04T00:21:20.939Z,50.908089
2023-04-04T00:22:20.912Z,50.908195
2023-04-04T00:23:20.898Z,50.908176
2023-04-04T00:24:20.889Z,50.908161
2023-04-04T00:25:20.877Z,50.908203
2023-04-04T00:26:20.907Z,50.908215
2023-04-04T00:27:20.874Z,50.908173
2023-04-04T00:28:20.854Z,50.908123
2023-04-04T00:29:20.856Z,50.908154
2023-04-04T00:30:20.876Z,50.908268
2023-04-04T00:31:20.962Z,50.908211
2023-04-04T00:32:20.901Z,50.908230
2023-04-04T00:33:20.845Z,50.908222
2023-04-04T00:34:20.805Z,50.908222
2023-04-04T00:35:20.805Z,50.908318
2023-04-04T00:36:20.818Z,50.908363
2023-04-04T00:37:20.789Z,50.908440
2023-04-04T00:38:20.774Z,50.908588
2023-04-04T00:39:20.779Z,50.908588
2023-04-04T00:40:20.758Z,50.908588
2023-04-04T00:41:20.780Z,50.908588
2023-04-04T00:42:20.753Z,50.908424
2023-04-04T00:43:20.746Z,50.908443
2023-04-04T00:44:20.748Z,50.908443
2023-04-04T00:45:20.721Z,50.908451
2023-04-04T00:46:20.748Z,50.908451
2023-04-04T00:47:20.704Z,50.908451
2023-04-04T00:48:20.705Z,50.908451
2023-04-04T00:49:20.721Z,50.908451
2023-04-04T00:50:20.702Z,50.908451
2023-04-04T00:51:20.720Z,50.908577
2023-04-04T00:52:20.678Z,50.908577
2023-04-04T00:53:20.662Z,50.908588
2023-04-04T00:54:20.661Z,50.908352
2023-04-04T00:55:20.650Z,50.908440
2023-04-04T00:56:20.684Z,50.908390
2023-04-04T00:57:20.639Z,50.908279
2023-04-04T00:58:20.635Z,50.908436
2023-04-04T00:59:20.674Z,50.908417
2023-04-04T01:00:20.629Z,50.908394
2023-04-04T01:01:20.670Z,50.908295
2023-04-04T01:02:20.606Z,50.908047
2023-04-04T01:03:20.598Z,50.907974
2023-04-04T01:04:20.677Z,50.908207
2023-04-04T01:05:20.586Z,50.908154
2023-04-04T01:06:20.606Z,50.908173
2023-04-04T01:07:20.569Z,50.908119
2023-04-04T01:08:20.564Z,50.908104
2023-04-04T01:09:20.551Z,50.908073
2023-04-04T01:10:20.542Z,50.908112
2023-04-04T01:11:20.570Z,50.907852
2023-04-04T01:12:20.525Z,50.907883
2023-04-04T01:13:20.519Z,50.907825
2023-04-04T01:14:20.510Z,50.907764
2023-04-04T01:15:20.516Z,50.908001
2023-04-04T01:16:20.532Z,50.908348
2023-04-04T01:17:20.482Z,50.908260
2023-04-04T01:18:20.476Z,50.908035
2023-04-04T01:19:20.470Z,50.908096
2023-04-04T01:20:20.466Z,50.908195
2023-04-04T01:21:20.475Z,50.908115
2023-04-04T01:22:20.441Z,50.908184
2023-04-04T01:23:20.434Z,50.908043
2023-04-04T01:24:20.431Z,50.908131
2023-04-04T01:25:20.431Z,50.908070
2023-04-04T01:26:20.453Z,50.908062
2023-04-04T01:27:20.411Z,50.908047
2023-04-04T01:28:20.390Z,50.907967
2023-04-04T01:29:20.385Z,50.907845
2023-04-04T01:30:20.376Z,50.907845
2023-04-04T01:31:20.415Z,50.907845
2023-04-04T01:32:20.381Z,50.907845
2023-04-04T01:33:20.363Z,50.907845
2023-04-04T01:34:20.362Z,50.907845
2023-04-04T01:35:20.350Z,50.907986
2023-04-04T01:36:20.374Z,50.907986
2023-04-04T01:37:20.322Z,50.908028
2023-04-04T01:38:20.320Z,50.907993
2023-04-04T01:39:20.313Z,50.907852
2023-04-04T01:40:20.310Z,50.907913
2023-04-04T01:41:20.382Z,50.907986
2023-04-04T01:42:20.292Z,50.908047
2023-04-04T01:43:20.281Z,50.908054
2023-04-04T01:44:20.276Z,50.907990
2023-04-04T01:45:20.278Z,50.907990
2023-04-04T01:46:20.324Z,50.907990
2023-04-04T01:47:20.282Z,50.907990
2023-04-04T01:48:20.252Z,50.907990
2023-04-04T01:49:20.246Z,50.907990
2023-04-04T01:50:20.246Z,50.907990
2023-04-04T01:51:20.230Z,50.907990
2023-04-04T01:52:20.239Z,50.907990
2023-04-04T01:53:20.213Z,50.907990
2023-04-04T01:54:20.214Z,50.907990
2023-04-04T01:55:20.198Z,50.907990
2023-04-04T01:56:20.198Z,50.907990
2023-04-04T01:57:20.208Z,50.907990
2023-04-04T01:58:20.185Z,50.907990
2023-04-04T01:59:20.206Z,50.907990
2023-04-04T02:00:20.161Z,50.907990
2023-04-04T02:01:20.239Z,50.907990
2023-04-04T02:02:20.165Z,50.907990
2023-04-04T02:03:20.150Z,50.907990
2023-04-04T02:04:20.158Z,50.907990
2023-04-04T02:05:20.130Z,50.907990
2023-04-04T02:06:20.114Z,50.907990
2023-04-04T02:07:20.137Z,50.907990
2023-04-04T02:08:20.112Z,50.907990
2023-04-04T02:09:20.098Z,50.907990
2023-04-04T02:10:20.100Z,50.907990
2023-04-04T02:11:20.089Z,50.907990
2023-04-04T02:12:20.117Z,50.907990
2023-04-04T02:13:20.064Z,50.907990
2023-04-04T02:14:20.063Z,50.908031
2023-04-04T02:15:20.049Z,50.908138
2023-04-04T02:16:20.158Z,50.908100
2023-04-04T02:17:20.055Z,50.907928
2023-04-04T02:18:20.036Z,50.907963
2023-04-04T02:19:20.025Z,50.908253
2023-04-04T02:20:20.026Z,50.908115
2023-04-04T02:21:20.014Z,50.908154
2023-04-04T02:22:20.038Z,50.908161
2023-04-04T02:23:19.987Z,50.908108
2023-04-04T02:24:19.994Z,50.908089
2023-04-04T02:25:19.975Z,50.908173
2023-04-04T02:26:19.973Z,50.908203
2023-04-04T02:27:19.988Z,50.908157
2023-04-04T02:28:19.950Z,50.908253
2023-04-04T02:29:19.946Z,50.908115
2023-04-04T02:30:19.938Z,50.908077
2023-04-04T02:31:19.959Z,50.908154
2023-04-04T02:32:19.948Z,50.908150
2023-04-04T02:33:19.911Z,50.908161
2023-04-04T02:34:19.903Z,50.908218
2023-04-04T02:35:19.897Z,50.908226
2023-04-04T02:36:19.949Z,50.908188
2023-04-04T02:37:19.913Z,50.908161
2023-04-04T02:38:19.866Z,50.908131
2023-04-04T02:39:19.864Z,50.908119
2023-04-04T02:40:19.875Z,50.908169
2023-04-04T02:41:19.855Z,50.908211
2023-04-04T02:42:19.871Z,50.908142
2023-04-04T02:43:19.839Z,50.908222
2023-04-04T02:44:19.828Z,50.908188
2023-04-04T02:45:19.822Z,50.908218
2023-04-04T02:46:21.937Z,50.908218
2023-04-04T02:47:20.833Z,50.907974
2023-04-04T02:48:19.803Z,50.908131
2023-04-04T02:49:19.798Z,50.908115
2023-04-04T02:50:19.795Z,50.908119
2023-04-04T02:51:19.783Z,50.908123
2023-04-04T02:52:19.804Z,50.908142
2023-04-04T02:53:19.766Z,50.908096
2023-04-04T02:54:19.759Z,50.908115
2023-04-04T02:55:19.751Z,50.908115
2023-04-04T02:56:19.760Z,50.908257
2023-04-04T02:57:19.764Z,50.908192
2023-04-04T02:58:19.733Z,50.908131
2023-04-04T02:59:19.765Z,50.908108
2023-04-04T03:00:19.733Z,50.908115
2023-04-04T03:01:19.738Z,50.908157
2023-04-04T03:02:19.885Z,50.908119
2023-04-04T03:03:19.959Z,50.908150
2023-04-04T03:04:19.695Z,50.908180
2023-04-04T03:05:19.682Z,50.908192
2023-04-04T03:06:19.671Z,50.908203
2023-04-04T03:07:19.693Z,50.908104
2023-04-04T03:08:19.666Z,50.908142
2023-04-04T03:09:19.670Z,50.908176
2023-04-04T03:10:19.642Z,50.908157
2023-04-04T03:11:19.635Z,50.908157
2023-04-04T03:12:19.654Z,50.908100
2023-04-04T03:13:19.624Z,50.908066
2023-04-04T03:14:19.611Z,50.908035
2023-04-04T03:15:19.611Z,50.908131
2023-04-04T03:16:19.667Z,50.908203
2023-04-04T03:17:19.604Z,50.908234
2023-04-04T03:18:19.613Z,50.908092
2023-04-04T03:19:19.575Z,50.907997
2023-04-04T03:20:19.574Z,50.908016
2023-04-04T03:21:19.557Z,50.908085
2023-04-04T03:22:19.551Z,50.908470
2023-04-04T03:23:19.573Z,50.908340
2023-04-04T03:24:19.562Z,50.908028
2023-04-04T03:25:19.535Z,50.907917
2023-04-04T03:26:19.530Z,50.908020
2023-04-04T03:27:19.526Z,50.908089
2023-04-04T03:28:19.545Z,50.908298
2023-04-04T03:29:19.497Z,50.908215
2023-04-04T03:30:19.513Z,50.908104
2023-04-04T03:31:19.481Z,50.908100
2023-04-04T03:32:19.469Z,50.908150
2023-04-04T03:33:19.506Z,50.908112
2023-04-04T03:34:19.474Z,50.908016
2023-04-04T03:35:19.469Z,50.908142
2023-04-04T03:36:19.454Z,50.908165
2023-04-04T03:37:19.437Z,50.908150
2023-04-04T03:38:19.460Z,50.908157
2023-04-04T03:39:19.436Z,50.908154
2023-04-04T03:40:19.424Z,50.908123
2023-04-04T03:41:19.423Z,50.908180
2023-04-04T03:42:19.415Z,50.908188
2023-04-04T03:43:19.429Z,50.908142
2023-04-04T03:44:19.389Z,50.908073
2023-04-04T03:45:19.385Z,50.908195
2023-04-04T03:46:19.470Z,50.908165
2023-04-04T03:47:19.420Z,50.908188
2023-04-04T03:48:19.376Z,50.908157
2023-04-04T03:49:19.357Z,50.908119
2023-04-04T03:50:19.343Z,50.908154
2023-04-04T03:51:19.329Z,50.908165
2023-04-04T03:52:19.322Z,50.908112
2023-04-04T03:53:19.343Z,50.908134
2023-04-04T03:54:19.309Z,50.908207
2023-04-04T03:55:19.306Z,50.908077
2023-04-04T03:56:19.294Z,50.908184
2023-04-04T03:57:19.290Z,50.908165
2023-04-04T03:58:19.310Z,50.908176
2023-04-04T03:59:19.296Z,50.908169
2023-04-04T04:00:19.270Z,50.908192
2023-04-04T04:01:19.258Z,50.907932
2023-04-04T04:02:19.277Z,50.908138
2023-04-04T04:03:19.342Z,50.908173
2023-04-04T04:04:19.290Z,50.908154
2023-04-04T04:05:19.238Z,50.908066
2023-04-04T04:06:19.221Z,50.908195
2023-04-04T04:07:19.211Z,50.908199
2023-04-04T04:08:19.232Z,50.908142
2023-04-04T04:09:19.220Z,50.908180
2023-04-04T04:10:19.202Z,50.908237
2023-04-04T04:11:19.212Z,50.908199
2023-04-04T04:12:19.189Z,50.908157
2023-04-04T04:13:19.194Z,50.908184
2023-04-04T04:14:19.156Z,50.908218
2023-04-04T04:15:19.158Z,50.908165
2023-04-04T04:16:19.197Z,50.908180
2023-04-04T04:17:19.143Z,50.908154
2023-04-04T04:18:19.167Z,50.908134
2023-04-04T04:19:19.136Z,50.908092
2023-04-04T04:20:19.124Z,50.908176
2023-04-04T04:21:19.114Z,50.908157
2023-04-04T04:22:19.096Z,50.908154
2023-04-04T04:23:19.122Z,50.908123
2023-04-04T04:24:19.085Z,50.908161
2023-04-04T04:25:19.078Z,50.908081
2023-04-04T04:26:19.082Z,50.908230
2023-04-04T04:27:19.083Z,50.908104
2023-04-04T04:28:19.090Z,50.907974
2023-04-04T04:29:19.059Z,50.908138
2023-04-04T04:30:19.053Z,50.908073
2023-04-04T04:31:19.090Z,50.908112
2023-04-04T04:32:19.044Z,50.908115
2023-04-04T04:33:19.043Z,50.908108
2023-04-04T04:34:19.030Z,50.908138
2023-04-04T04:35:19.004Z,50.908184
2023-04-04T04:36:19.045Z,50.908104
2023-04-04T04:37:18.996Z,50.908085
2023-04-04T04:38:19.003Z,50.908081
2023-04-04T04:39:18.975Z,50.908215
2023-04-04T04:40:18.973Z,50.908199
2023-04-04T04:41:18.963Z,50.908234
2023-04-04T04:42:18.959Z,50.908100
2023-04-04T04:43:18.978Z,50.908035
2023-04-04T04:44:18.940Z,50.908195
2023-04-04T04:45:18.928Z,50.908058
2023-04-04T04:46:18.962Z,50.908154
2023-04-04T04:47:18.913Z,50.908157
2023-04-04T04:48:18.947Z,50.908085
2023-04-04T04:49:18.955Z,50.908066
2023-04-04T04:50:18.893Z,50.908005
2023-04-04T04:51:18.886Z,50.908089
2023-04-04T04:52:18.874Z,50.908180
2023-04-04T04:53:18.890Z,50.908119
2023-04-04T04:54:18.864Z,50.908070
2023-04-04T04:55:18.856Z,50.908112
2023-04-04T04:56:18.843Z,50.907990
2023-04-04T04:57:18.837Z,50.907997
2023-04-04T04:58:18.855Z,50.908134
2023-04-04T04:59:18.917Z,50.908157
2023-04-04T05:00:18.821Z,50.908092
2023-04-04T05:01:18.832Z,50.908092
2023-04-04T05:02:18.827Z,50.908100
2023-04-04T05:03:18.831Z,50.908039
2023-04-04T05:04:18.791Z,50.908077
2023-04-04T05:05:18.788Z,50.908131
2023-04-04T05:06:18.764Z,50.908092
2023-04-04T05:07:18.762Z,50.907974
2023-04-04T05:08:18.783Z,50.907974
2023-04-04T05:09:18.746Z,50.907974
2023-04-04T05:10:18.735Z,50.908150
2023-04-04T05:11:18.728Z,50.908051
2023-04-04T05:12:18.716Z,50.908070
2023-04-04T05:13:18.735Z,50.908199
2023-04-04T05:14:18.704Z,50.908104
2023-04-04T05:15:18.705Z,50.908188
2023-04-04T05:16:18.714Z,50.908257
2023-04-04T05:17:18.701Z,50.907913
2023-04-04T05:18:18.696Z,50.908195
2023-04-04T05:19:18.719Z,50.908024
2023-04-04T05:20:18.654Z,50.907902
2023-04-04T05:21:18.645Z,50.907902
2023-04-04T05:22:18.638Z,50.908016
2023-04-04T05:23:18.647Z,50.908016
2023-04-04T05:24:18.624Z,50.908180
2023-04-04T05:25:18.623Z,50.908092
2023-04-04T05:26:19.617Z,50.908127
2023-04-04T05:27:18.599Z,50.908146
2023-04-04T05:28:18.659Z,50.908154
2023-04-04T05:29:18.612Z,50.908138
2023-04-04T05:30:18.574Z,50.908173
2023-04-04T05:31:18.729Z,50.908161
2023-04-04T05:32:18.559Z,50.908142
2023-04-04T05:33:18.573Z,50.908154
2023-04-04T05:34:18.542Z,50.908142
2023-04-04T05:35:18.593Z,50.908176
2023-04-04T05:36:18.572Z,50.908203
2023-04-04T05:37:18.522Z,50.908157
2023-04-04T05:38:18.539Z,50.908161
2023-04-04T05:39:19.516Z,50.908176
2023-04-04T05:40:18.496Z,50.908211
2023-04-04T05:41:18.486Z,50.908192
2023-04-04T05:42:18.483Z,50.908199
2023-04-04T05:43:18.499Z,50.908134
2023-04-04T05:44:18.465Z,50.908188
2023-04-04T05:45:18.452Z,50.908184
2023-04-04T05:46:18.482Z,50.908203
2023-04-04T05:47:18.438Z,50.908184
2023-04-04T05:48:18.466Z,50.908184
2023-04-04T05:49:18.420Z,50.908131
2023-04-04T05:50:18.415Z,50.908146
2023-04-04T05:51:19.418Z,50.908157
2023-04-04T05:52:18.396Z,50.908123
2023-04-04T05:53:18.417Z,50.908184
2023-04-04T05:54:18.389Z,50.908257
2023-04-04T05:55:18.375Z,50.908173
2023-04-04T05:56:18.379Z,50.908157
2023-04-04T05:57:18.360Z,50.908165
2023-04-04T05:58:18.361Z,50.908157
2023-04-04T05:59:18.438Z,50.908142
2023-04-04T06:00:18.357Z,50.908142
2023-04-04T06:01:18.330Z,50.908142
2023-04-04T06:02:18.352Z,50.908154
2023-04-04T06:03:21.180Z,50.908127
2023-04-04T06:04:19.333Z,50.908142
2023-04-04T06:05:18.308Z,50.908161
2023-04-04T06:06:18.335Z,50.908146
2023-04-04T06:07:18.286Z,50.908115
2023-04-04T06:08:18.282Z,50.908115
2023-04-04T06:09:18.297Z,50.908142
2023-04-04T06:10:18.270Z,50.908150
2023-04-04T06:11:18.254Z,50.908138
2023-04-04T06:12:18.246Z,50.908115
2023-04-04T06:13:18.242Z,50.908142
2023-04-04T06:14:18.253Z,50.908146
2023-04-04T06:15:18.221Z,50.908134
2023-04-04T06:16:18.252Z,50.908127
2023-04-04T06:17:18.205Z,50.908112
2023-04-04T06:18:18.199Z,50.908100
2023-04-04T06:19:20.123Z,50.908142
2023-04-04T06:20:18.184Z,50.908138
2023-04-04T06:21:18.175Z,50.908115
2023-04-04T06:22:18.165Z,50.908100
2023-04-04T06:23:18.154Z,50.908115
2023-04-04T06:24:18.171Z,50.908115
2023-04-04T06:25:18.139Z,50.908100
2023-04-04T06:26:18.126Z,50.908115
2023-04-04T06:27:18.123Z,50.908115
2023-04-04T06:28:18.160Z,50.908081
2023-04-04T06:29:18.141Z,50.908089
2023-04-04T06:30:18.117Z,50.908077
2023-04-04T06:31:18.104Z,50.908092
2023-04-04T06:32:18.122Z,50.908142
2023-04-04T06:33:18.080Z,50.908131
2023-04-04T06:34:18.093Z,50.908112
2023-04-04T06:35:19.999Z,50.908100
2023-04-04T06:36:19.056Z,50.908104
2023-04-04T06:37:18.037Z,50.908085
2023-04-04T06:38:18.031Z,50.908127
2023-04-04T06:39:18.048Z,50.908157
2023-04-04T06:40:18.019Z,50.908154
2023-04-04T06:41:18.011Z,50.908108
2023-04-04T06:42:18.002Z,50.908138
2023-04-04T06:43:18.000Z,50.908134
2023-04-04T06:44:18.016Z,50.908131
2023-04-04T06:45:17.997Z,50.908127
2023-04-04T06:46:17.993Z,50.908096
2023-04-04T06:47:17.966Z,50.908123
2023-04-04T06:48:17.966Z,50.908146
2023-04-04T06:49:17.981Z,50.908154
2023-04-04T06:50:17.943Z,50.908119
2023-04-04T06:51:17.932Z,50.908154
2023-04-04T06:52:17.917Z,50.908195
2023-04-04T06:53:17.921Z,50.908062
2023-04-04T06:54:17.932Z,50.908161
2023-04-04T06:55:17.897Z,50.908154
2023-04-04T06:56:17.885Z,50.908154
2023-04-04T06:57:17.881Z,50.908165
2023-04-04T06:58:17.874Z,50.908112
2023-04-04T06:59:17.906Z,50.908188
2023-04-04T07:00:17.855Z,50.908161
2023-04-04T07:01:17.883Z,50.908165
2023-04-04T07:02:17.866Z,50.908169
2023-04-04T07:03:17.870Z,50.908154
2023-04-04T07:04:17.852Z,50.908127
2023-04-04T07:05:17.882Z,50.908150
2023-04-04T07:06:17.809Z,50.908115
2023-04-04T07:07:17.807Z,50.908154
2023-04-04T07:08:17.844Z,50.908131
2023-04-04T07:09:28.011Z,50.908085
2023-04-04T07:10:19.782Z,50.908142
2023-04-04T07:11:17.774Z,50.908203
2023-04-04T07:12:17.787Z,50.908180
2023-04-04T07:13:17.765Z,50.908142
2023-04-04T07:14:17.784Z,50.908134
2023-04-04T07:15:17.758Z,50.908123
2023-04-04T07:16:17.770Z,50.908150
2023-04-04T07:17:24.599Z,50.908173
2023-04-04T07:18:19.717Z,50.908100
2023-04-04T07:19:17.739Z,50.908127
2023-04-04T07:20:17.714Z,50.908142
2023-04-04T07:21:17.699Z,50.908123
2023-04-04T07:22:17.702Z,50.908134
2023-04-04T07:23:17.689Z,50.908119
2023-04-04T07:24:17.700Z,50.908092
2023-04-04T07:25:17.672Z,50.908081
2023-04-04T07:26:17.662Z,50.908062
2023-04-04T07:27:17.661Z,50.908146
2023-04-04T07:28:17.663Z,50.908146
2023-04-04T07:29:17.695Z,50.908127
2023-04-04T07:30:17.631Z,50.908119
2023-04-04T07:31:17.632Z,50.908115
2023-04-04T07:32:17.625Z,50.908062
2023-04-04T07:33:17.610Z,50.908119
2023-04-04T07:34:17.633Z,50.908066
2023-04-04T07:35:17.601Z,50.908081
2023-04-04T07:36:17.633Z,50.908058
2023-04-04T07:37:17.594Z,50.908081
2023-04-04T07:38:17.590Z,50.908222
2023-04-04T07:39:17.587Z,50.908146
2023-04-04T07:40:17.555Z,50.908127
2023-04-04T07:41:17.556Z,50.908070
2023-04-04T07:42:17.541Z,50.908073
2023-04-04T07:43:17.556Z,50.908066
2023-04-04T07:44:17.551Z,50.908085
2023-04-04T07:45:17.520Z,50.908104
2023-04-04T07:46:17.587Z,50.908081
2023-04-04T07:47:17.504Z,50.908112
2023-04-04T07:48:17.507Z,50.908039
2023-04-04T07:49:17.513Z,50.908031
2023-04-04T07:50:17.486Z,50.908009
2023-04-04T07:51:17.470Z,50.908043
2023-04-04T07:52:17.470Z,50.908081
2023-04-04T07:53:17.459Z,50.908073
2023-04-04T07:54:17.466Z,50.908054
2023-04-04T07:55:17.436Z,50.908051
2023-04-04T07:56:17.440Z,50.908035
2023-04-04T07:57:17.417Z,50.908085
2023-04-04T07:58:17.421Z,50.908092
2023-04-04T07:59:17.444Z,50.908092
2023-04-04T08:00:17.397Z,50.908066
2023-04-04T08:01:17.395Z,50.908047
2023-04-04T08:02:17.444Z,50.907993
2023-04-04T08:03:17.557Z,50.907909
2023-04-04T08:04:17.452Z,50.907967
2023-04-04T08:05:17.364Z,50.907986
2023-04-04T08:06:17.350Z,50.907990
2023-04-04T08:07:17.352Z,50.908104
2023-04-04T08:08:17.358Z,50.908150
2023-04-04T08:09:17.350Z,50.908131
2023-04-04T08:10:17.351Z,50.908108
2023-04-04T08:11:17.313Z,50.908112
2023-04-04T08:12:17.308Z,50.908142
2023-04-04T08:13:17.303Z,50.908073
2023-04-04T08:14:17.313Z,50.908104
2023-04-04T08:15:17.301Z,50.908112
2023-04-04T08:16:17.299Z,50.908108
2023-04-04T08:17:17.267Z,50.908154
2023-04-04T08:18:17.263Z,50.908131
2023-04-04T08:19:17.279Z,50.908154
2023-04-04T08:20:17.246Z,50.908138
2023-04-04T08:21:17.235Z,50.908131
2023-04-04T08:22:17.236Z,50.908115
2023-04-04T08:23:17.227Z,50.908115
2023-04-04T08:24:17.235Z,50.908131
2023-04-04T08:25:17.210Z,50.908131
2023-04-04T08:26:17.199Z,50.908131
2023-04-04T08:27:17.184Z,50.908096
2023-04-04T08:28:17.194Z,50.908104
2023-04-04T08:29:17.195Z,50.908131
2023-04-04T08:30:17.168Z,50.908123
2023-04-04T08:31:17.199Z,50.908123
2023-04-04T08:32:17.142Z,50.908157
2023-04-04T08:33:17.190Z,50.908123
2023-04-04T08:34:17.152Z,50.908131
2023-04-04T08:35:17.128Z,50.908142
2023-04-04T08:36:17.121Z,50.908119
2023-04-04T08:37:17.141Z,50.908092
2023-04-04T08:38:17.104Z,50.908142
2023-04-04T08:39:17.115Z,50.908134
2023-04-04T08:40:17.116Z,50.908138
2023-04-04T08:41:17.086Z,50.908161
2023-04-04T08:42:17.098Z,50.908138
2023-04-04T08:43:17.062Z,50.908127
2023-04-04T08:44:17.081Z,50.908104
2023-04-04T08:45:17.056Z,50.908161
2023-04-04T08:46:17.063Z,50.908119
2023-04-04T08:47:17.034Z,50.908154
2023-04-04T08:48:17.020Z,50.908115
2023-04-04T08:49:17.054Z,50.908154
2023-04-04T08:50:17.042Z,50.908157
2023-04-04T08:51:17.003Z,50.908112
2023-04-04T08:52:16.992Z,50.908184
2023-04-04T08:53:16.984Z,50.908180
2023-04-04T08:54:17.008Z,50.908188
2023-04-04T08:55:16.976Z,50.908161
2023-04-04T08:56:16.963Z,50.908096
2023-04-04T08:57:16.955Z,50.908123
2023-04-04T08:58:16.947Z,50.908123
2023-04-04T08:59:17.028Z,50.908134
2023-04-04T09:00:17.596Z,50.908161
2023-04-04T09:01:16.974Z,50.908169
2023-04-04T09:02:17.232Z,50.908161
2023-04-04T09:03:16.988Z,50.908173
2023-04-04T09:04:16.909Z,50.908173
2023-04-04T09:05:16.921Z,50.908154
2023-04-04T09:06:16.889Z,50.908180
2023-04-04T09:07:16.895Z,50.908165
2023-04-04T09:08:16.875Z,50.908112
2023-04-04T09:09:16.872Z,50.908115
2023-04-04T09:10:16.882Z,50.908157
2023-04-04T09:11:16.851Z,50.908161
2023-04-04T09:12:16.842Z,50.908104
2023-04-04T09:13:16.993Z,50.908138
2023-04-04T09:14:16.826Z,50.908157
2023-04-04T09:15:16.866Z,50.908108
2023-04-04T09:16:16.837Z,50.908100
2023-04-04T09:17:16.808Z,50.908096
2023-04-04T09:18:16.792Z,50.908070
2023-04-04T09:19:16.785Z,50.908096
2023-04-04T09:20:16.811Z,50.908115
2023-04-04T09:21:16.767Z,50.908077
2023-04-04T09:22:16.770Z,50.908081
2023-04-04T09:23:16.748Z,50.908092
2023-04-04T09:24:16.742Z,50.908138
2023-04-04T09:25:16.858Z,50.908134
2023-04-04T09:26:16.728Z,50.908100
2023-04-04T09:27:16.723Z,50.908070
2023-04-04T09:28:16.710Z,50.908115
2023-04-04T09:29:16.700Z,50.908100
2023-04-04T09:30:16.719Z,50.908131
2023-04-04T09:31:16.688Z,50.908188
2023-04-04T09:32:16.729Z,50.908138
2023-04-04T09:33:16.680Z,50.908188
2023-04-04T09:34:16.674Z,50.908253
2023-04-04T09:35:16.677Z,50.908230
2023-04-04T09:36:18.293Z,50.908199
2023-04-04T09:37:17.713Z,50.908199
2023-04-04T09:38:16.656Z,50.908142
2023-04-04T09:39:16.661Z,50.908161
2023-04-04T09:40:16.685Z,50.908142
2023-04-04T09:41:16.674Z,50.908245
2023-04-04T09:42:16.784Z,50.908157
2023-04-04T09:43:16.596Z,50.908161
2023-04-04T09:44:16.594Z,50.908165
2023-04-04T09:45:22.275Z,50.908249
2023-04-04T09:46:18.585Z,50.908123
2023-04-04T09:47:27.766Z,50.908131
2023-04-04T09:48:17.555Z,50.908176
2023-04-04T09:49:16.554Z,50.908161
2023-04-04T09:50:16.569Z,50.908173
2023-04-04T09:51:16.543Z,50.908199
2023-04-04T09:52:16.526Z,50.908077
2023-04-04T09:53:16.514Z,50.908089
2023-04-04T09:54:28.869Z,50.908115
2023-04-04T09:55:18.532Z,50.908142
2023-04-04T09:56:16.499Z,50.908176
2023-04-04T09:57:16.491Z,50.908127
2023-04-04T09:58:16.489Z,50.907986
2023-04-04T09:59:16.541Z,50.908176
2023-04-04T10:00:16.496Z,50.908180
2023-04-04T10:01:16.486Z,50.908173
2023-04-04T10:02:16.454Z,50.908188
2023-04-04T10:03:16.444Z,50.908154
2023-04-04T10:04:16.454Z,50.908184
2023-04-04T10:05:16.447Z,50.908180
2023-04-04T10:06:16.415Z,50.908207
2023-04-04T10:07:16.409Z,50.908218
2023-04-04T10:08:16.398Z,50.908199
2023-04-04T10:09:16.390Z,50.908157
2023-04-04T10:10:16.409Z,50.908081
2023-04-04T10:11:16.385Z,50.908127
2023-04-04T10:12:16.374Z,50.907993
2023-04-04T10:13:16.357Z,50.907867
2023-04-04T10:14:16.349Z,50.908001
2023-04-04T10:15:16.368Z,50.908241
2023-04-04T10:16:16.378Z,50.908127
2023-04-04T10:17:16.329Z,50.908184
2023-04-04T10:18:16.345Z,50.908108
2023-04-04T10:19:16.329Z,50.908154
2023-04-04T10:20:16.341Z,50.908184
2023-04-04T10:21:16.301Z,50.908157
2023-04-04T10:22:16.297Z,50.908211
2023-04-04T10:23:16.287Z,50.908237
2023-04-04T10:24:16.305Z,50.908295
2023-04-04T10:25:16.307Z,50.908245
2023-04-04T10:26:16.284Z,50.908131
2023-04-04T10:27:16.265Z,50.908134
2023-04-04T10:28:16.252Z,50.907909
2023-04-04T10:29:16.240Z,50.907925
2023-04-04T10:30:16.242Z,50.908150
2023-04-04T10:31:16.319Z,50.908390
2023-04-04T10:32:16.212Z,50.908283
2023-04-04T10:33:16.244Z,50.908218
2023-04-04T10:34:16.218Z,50.908165
2023-04-04T10:35:16.451Z,50.908081
2023-04-04T10:36:16.263Z,50.908127
2023-04-04T10:37:16.174Z,50.908192
2023-04-04T10:38:16.184Z,50.908073
2023-04-04T10:39:16.162Z,50.908138
2023-04-04T10:40:16.152Z,50.908123
2023-04-04T10:41:16.169Z,50.908165
2023-04-04T10:42:16.147Z,50.908127
2023-04-04T10:43:16.139Z,50.908104
2023-04-04T10:44:16.136Z,50.908154
2023-04-04T10:45:20.451Z,50.908104
2023-04-04T10:46:17.205Z,50.908092
2023-04-04T10:47:16.112Z,50.908119
2023-04-04T10:48:16.112Z,50.908165
2023-04-04T10:49:16.084Z,50.908146
2023-04-04T10:50:16.081Z,50.908192
2023-04-04T10:51:16.094Z,50.908134
2023-04-04T10:52:16.060Z,50.908207
2023-04-04T10:53:16.045Z,50.908157
2023-04-04T10:54:16.043Z,50.908112
2023-04-04T10:55:16.029Z,50.908142
2023-04-04T10:56:16.057Z,50.908165
2023-04-04T10:57:16.015Z,50.908066
2023-04-04T10:58:16.009Z,50.908016
2023-04-04T10:59:16.081Z,50.908150
2023-04-04T11:00:16.003Z,50.908131
2023-04-04T11:01:16.049Z,50.908112
2023-04-04T11:02:15.998Z,50.908100
2023-04-04T11:03:15.976Z,50.908085
2023-04-04T11:04:17.894Z,50.908073
2023-04-04T11:05:15.957Z,50.908100
2023-04-04T11:06:15.993Z,50.908131
2023-04-04T11:07:15.948Z,50.908165
2023-04-04T11:08:15.973Z,50.908119
2023-04-04T11:09:15.933Z,50.908123
2023-04-04T11:10:15.930Z,50.908131
2023-04-04T11:11:22.602Z,50.908115
2023-04-04T11:12:17.934Z,50.908096
2023-04-04T11:13:15.911Z,50.908085
2023-04-04T11:14:15.885Z,50.908100
2023-04-04T11:15:15.885Z,50.908112
2023-04-04T11:16:15.999Z,50.908115
2023-04-04T11:17:15.872Z,50.908077
2023-04-04T11:18:31.620Z,50.908115
2023-04-04T11:19:17.854Z,50.908119
2023-04-04T11:20:15.849Z,50.908134
2023-04-04T11:21:15.863Z,50.908131
2023-04-04T11:22:15.820Z,50.908138
2023-04-04T11:23:15.811Z,50.908100
2023-04-04T11:24:15.834Z,50.908115